createdAt,value
2023-05-18T00:02:42.159Z,100362.21
2023-05-18T00:06:10.393Z,100358.46
2023-05-18T00:09:37.972Z,100358.99
2023-05-18T00:13:06.090Z,100365.43
2023-05-18T00:16:33.896Z,100366.60
2023-05-18T00:20:02.110Z,100367.80
2023-05-18T00:23:30.048Z,100365.15
2023-05-18T00:26:39.782Z,100370.84
2023-05-18T00:30:08.143Z,100380.41
2023-05-18T00:33:36.120Z,100377.00
2023-05-18T00:37:03.924Z,100375.81
2023-05-18T00:40:31.974Z,100375.47
2023-05-18T00:43:40.891Z,100376.77
2023-05-18T00:47:09.005Z,100378.49
2023-05-18T00:50:36.965Z,100382.26
2023-05-18T00:54:04.913Z,100379.52
2023-05-18T00:57:32.876Z,100375.15
2023-05-18T01:01:00.805Z,100374.46
2023-05-18T01:04:29.068Z,100371.67
2023-05-18T01:07:57.081Z,100372.79
2023-05-18T01:11:25.307Z,100369.88
2023-05-18T01:14:53.983Z,100377.02
2023-05-18T01:18:22.304Z,100371.84
2023-05-18T01:21:50.428Z,100374.15
2023-05-18T01:24:59.374Z,100373.30
2023-05-18T01:28:27.390Z,100371.16
2023-05-18T01:31:55.467Z,100368.78
2023-05-18T01:35:23.700Z,100364.99
2023-05-18T01:38:51.834Z,100366.77
2023-05-18T01:42:19.817Z,100368.30
2023-05-18T01:45:47.744Z,100369.47
2023-05-18T01:49:15.913Z,100370.46
2023-05-18T01:52:44.304Z,100383.52
2023-05-18T01:55:54.085Z,100380.26
2023-05-18T01:59:21.971Z,100384.50
2023-05-18T02:02:30.908Z,100388.56
2023-05-18T02:05:40.071Z,100388.05
2023-05-18T02:09:08.137Z,100390.20
2023-05-18T02:12:36.236Z,100388.51
2023-05-18T02:16:04.230Z,100389.58
2023-05-18T02:19:13.603Z,100382.89
2023-05-18T02:22:41.550Z,100386.02
2023-05-18T02:26:09.306Z,100385.31
2023-05-18T02:29:37.309Z,100388.40
2023-05-18T02:33:05.289Z,100391.41
2023-05-18T02:36:33.282Z,100390.33
2023-05-18T02:39:45.127Z,100390.02
2023-05-18T02:43:13.127Z,100391.45
2023-05-18T02:46:41.218Z,100400.97
2023-05-18T02:50:09.570Z,100407.13
2023-05-18T02:53:19.013Z,100414.13
2023-05-18T02:56:47.198Z,100417.38
2023-05-18T03:00:15.154Z,100421.95
2023-05-18T03:03:24.407Z,100427.87
2023-05-18T03:06:33.051Z,100428.37
2023-05-18T03:10:01.301Z,100435.01
2023-05-18T03:13:11.329Z,100437.83
2023-05-18T03:16:39.580Z,100441.73
2023-05-18T03:20:07.923Z,100450.62
2023-05-18T03:23:36.118Z,100456.60
2023-05-18T03:27:04.167Z,100459.13
2023-05-18T03:30:32.441Z,100459.52
2023-05-18T03:33:41.079Z,100467.39
2023-05-18T03:37:09.253Z,100468.58
2023-05-18T03:40:18.007Z,100477.88
2023-05-18T03:43:45.880Z,100484.64
2023-05-18T03:46:54.242Z,100488.79
2023-05-18T03:50:10.153Z,100487.99
2023-05-18T03:53:38.117Z,100492.41
2023-05-18T03:57:06.592Z,100495.73
2023-05-18T04:00:16.655Z,100494.64
2023-05-18T04:03:24.602Z,100503.92
2023-05-18T04:06:52.445Z,100500.13
2023-05-18T04:10:01.692Z,100508.91
2023-05-18T04:13:29.801Z,100511.09
2023-05-18T04:16:57.824Z,100515.84
2023-05-18T04:19:48.928Z,100518.69
2023-05-18T04:23:16.814Z,100520.54
2023-05-18T04:26:44.696Z,100524.34
2023-05-18T04:30:13.023Z,100524.14
2023-05-18T04:33:41.541Z,100531.67
2023-05-18T04:37:09.416Z,100537.33
2023-05-18T04:40:37.438Z,100537.48
2023-05-18T04:43:46.241Z,100545.52
2023-05-18T04:46:54.749Z,100542.52
2023-05-18T04:49:44.159Z,100545.73
2023-05-18T04:52:53.110Z,100552.06
2023-05-18T04:56:21.128Z,100547.59
2023-05-18T04:59:49.047Z,100550.30
2023-05-18T05:03:17.116Z,100550.16
2023-05-18T05:06:26.417Z,100554.15
2023-05-18T05:09:35.059Z,100551.59
2023-05-18T05:12:43.758Z,100552.88
2023-05-18T05:16:13.177Z,100555.73
2023-05-18T05:23:13.516Z,100560.42
2023-05-18T05:26:44.114Z,100556.12
2023-05-18T05:30:13.173Z,100556.75
2023-05-18T05:33:40.995Z,100555.23
2023-05-18T05:36:50.601Z,100558.90
2023-05-18T05:40:18.234Z,100563.52
2023-05-18T05:43:21.998Z,100563.41
2023-05-18T05:46:49.850Z,100563.15
2023-05-18T05:50:17.678Z,100563.51
2023-05-18T05:53:45.428Z,100565.55
2023-05-18T05:57:13.346Z,100564.08
2023-05-18T06:00:22.884Z,100565.81
2023-05-18T06:03:35.965Z,100565.59
2023-05-18T06:07:02.285Z,100571.05
2023-05-18T06:10:13.934Z,100574.55
2023-05-18T06:13:03.363Z,100576.71
2023-05-18T06:16:30.939Z,100583.29
2023-05-18T06:19:28.607Z,100588.79
2023-05-18T06:22:51.877Z,100587.82
2023-05-18T06:26:07.455Z,100594.13
2023-05-18T06:28:58.569Z,100595.86
2023-05-18T06:32:25.306Z,100597.75
2023-05-18T06:35:33.960Z,100599.73
2023-05-18T06:39:01.749Z,100610.79
2023-05-18T06:42:30.148Z,100618.41
2023-05-18T06:46:07.308Z,100621.81
2023-05-18T06:49:37.808Z,100625.59
2023-05-18T06:53:05.841Z,100630.39
2023-05-18T06:55:58.132Z,100633.80
2023-05-18T06:59:25.958Z,100640.69
2023-05-18T07:02:54.008Z,100642.35
2023-05-18T07:06:21.877Z,100648.66
2023-05-18T07:09:44.772Z,100651.52
2023-05-18T07:12:48.929Z,100654.73
2023-05-18T07:16:01.255Z,100658.77
2023-05-18T07:19:09.402Z,100664.27
2023-05-18T07:22:21.182Z,100667.10
2023-05-18T07:25:30.193Z,100666.76
2023-05-18T07:28:40.758Z,100670.80
2023-05-18T07:32:08.796Z,100666.52
2023-05-18T07:35:20.567Z,100667.38
2023-05-18T07:37:52.830Z,100668.80
2023-05-18T07:41:21.007Z,100668.96
2023-05-18T07:44:28.867Z,100673.08
2023-05-18T07:47:57.112Z,100670.35
2023-05-18T07:51:05.050Z,100671.05
2023-05-18T07:54:13.292Z,100673.59
2023-05-18T07:57:21.952Z,100674.67
2023-05-18T08:00:30.551Z,100678.58
2023-05-18T08:03:42.838Z,100676.80
2023-05-18T08:06:46.803Z,100682.79
2023-05-18T08:09:34.552Z,100684.52
2023-05-18T08:13:02.591Z,100684.05
2023-05-18T08:16:12.669Z,100684.29
2023-05-18T08:19:20.084Z,100685.58
2023-05-18T08:22:28.770Z,100690.77
2023-05-18T08:25:56.838Z,100693.92
2023-05-18T08:29:04.635Z,100695.35
2023-05-18T08:32:28.258Z,100700.61
2023-05-18T08:35:52.136Z,100696.48
2023-05-18T08:39:07.859Z,100697.83
2023-05-18T08:42:27.470Z,100703.45
2023-05-18T08:45:22.850Z,100705.54
2023-05-18T08:48:51.181Z,100707.66
2023-05-18T08:52:00.034Z,100713.41
2023-05-18T08:55:27.907Z,100713.88
2023-05-18T08:58:43.278Z,100712.92
2023-05-18T09:01:48.575Z,100714.28
2023-05-18T09:04:19.531Z,100712.91
2023-05-18T09:07:17.518Z,100714.45
2023-05-18T09:10:15.294Z,100718.84
2023-05-18T09:13:19.237Z,100715.23
2023-05-18T09:16:28.185Z,100713.73
2023-05-18T09:19:17.334Z,100713.50
2023-05-18T09:22:26.937Z,100708.25
2023-05-18T09:25:03.854Z,100706.68
2023-05-18T09:27:34.927Z,100707.23
2023-05-18T09:30:23.892Z,100705.23
2023-05-18T09:33:10.219Z,100707.05
2023-05-18T09:36:06.149Z,100704.13
2023-05-18T09:38:49.102Z,100701.80
2023-05-18T09:41:56.980Z,100703.96
2023-05-18T09:45:08.748Z,100704.38
2023-05-18T09:48:32.613Z,100703.66
2023-05-18T09:51:03.606Z,100705.73
2023-05-18T09:53:55.550Z,100708.38
2023-05-18T09:56:31.343Z,100717.59
2023-05-18T09:59:43.046Z,100714.09
2023-05-18T10:03:00.370Z,100710.84
2023-05-18T10:05:48.312Z,100718.65
2023-05-18T10:08:17.245Z,100716.73
2023-05-18T10:11:25.041Z,100715.91
2023-05-18T10:14:33.310Z,100715.70
2023-05-18T10:17:21.855Z,100715.46
2023-05-18T10:20:29.858Z,100711.09
2023-05-18T10:23:39.779Z,100710.66
2023-05-18T10:26:48.473Z,100709.56
2023-05-18T10:29:55.930Z,100711.16
2023-05-18T10:32:37.898Z,100715.98
2023-05-18T10:35:30.206Z,100713.60
2023-05-18T10:38:40.054Z,100715.37
2023-05-18T10:41:48.625Z,100717.30
2023-05-18T10:44:37.336Z,100717.39
2023-05-18T10:48:01.492Z,100718.08
2023-05-18T10:51:12.008Z,100720.50
2023-05-18T10:54:20.622Z,100720.08
2023-05-18T10:56:56.566Z,100717.68
2023-05-18T11:00:04.760Z,100721.77
2023-05-18T11:02:56.681Z,100720.91
2023-05-18T11:06:20.333Z,100719.49
2023-05-18T11:09:26.521Z,100717.27
2023-05-18T11:12:33.293Z,100706.71
2023-05-18T11:15:22.790Z,100707.85
2023-05-18T11:18:08.252Z,100703.83
2023-05-18T11:21:01.874Z,100705.88
2023-05-18T11:23:32.771Z,100704.95
2023-05-18T11:26:36.843Z,100707.94
2023-05-18T11:29:41.683Z,100709.09
2023-05-18T11:32:31.337Z,100716.86
2023-05-18T11:35:15.428Z,100723.92
2023-05-18T11:37:51.861Z,100726.67
2023-05-18T11:40:41.545Z,100723.74
2023-05-18T11:43:49.644Z,100723.05
2023-05-18T11:46:38.524Z,100723.47
2023-05-18T11:49:41.756Z,100721.73
2023-05-18T11:52:28.984Z,100719.98
2023-05-18T11:54:59.689Z,100720.92
2023-05-18T11:57:49.668Z,100721.21
2023-05-18T12:01:05.009Z,100722.23
2023-05-18T12:04:13.052Z,100729.23
2023-05-18T12:07:41.034Z,100728.80
2023-05-18T12:10:32.107Z,100727.77
2023-05-18T12:13:37.703Z,100731.32
2023-05-18T12:16:26.248Z,100731.23
2023-05-18T12:19:34.119Z,100727.11
2023-05-18T12:22:22.744Z,100725.65
2023-05-18T12:25:01.419Z,100724.00
2023-05-18T12:27:54.293Z,100725.77
2023-05-18T12:31:02.200Z,100719.45
2023-05-18T12:34:10.106Z,100719.46
2023-05-18T12:36:39.338Z,100714.34
2023-05-18T12:39:08.819Z,100721.83
2023-05-18T12:42:16.718Z,100724.16
2023-05-18T12:45:06.995Z,100723.11
2023-05-18T12:47:52.060Z,100724.55
2023-05-18T12:50:43.734Z,100724.55
2023-05-18T12:53:30.748Z,100725.16
2023-05-18T12:56:33.779Z,100726.15
2023-05-18T12:59:38.001Z,100728.66
2023-05-18T13:02:46.212Z,100726.36
2023-05-18T13:05:44.409Z,100728.24
2023-05-18T13:08:32.424Z,100733.45
2023-05-18T13:11:20.247Z,100733.17
2023-05-18T13:14:24.123Z,100734.91
2023-05-18T13:17:13.104Z,100731.35
2023-05-18T13:20:03.317Z,100734.81
2023-05-18T13:22:32.253Z,100742.34
2023-05-18T13:25:22.150Z,100742.67
2023-05-18T13:28:16.011Z,100745.95
2023-05-18T13:31:05.929Z,100743.38
2023-05-18T13:33:46.922Z,100745.27
2023-05-18T13:36:16.924Z,100746.70
2023-05-18T13:39:12.552Z,100744.14
2023-05-18T13:41:42.382Z,100747.69
2023-05-18T13:44:15.227Z,100751.95
2023-05-18T13:47:11.534Z,100757.68
2023-05-18T13:49:58.297Z,100758.81
2023-05-18T13:52:28.553Z,100763.42
2023-05-18T13:55:13.029Z,100759.86
2023-05-18T13:58:15.717Z,100763.19
2023-05-18T14:01:05.757Z,100764.93
2023-05-18T14:04:01.721Z,100760.77
2023-05-18T14:06:33.489Z,100755.66
2023-05-18T14:09:14.203Z,100749.75
2023-05-18T14:12:10.323Z,100740.35
2023-05-18T14:14:47.828Z,100734.80
2023-05-18T14:17:45.372Z,100738.54
2023-05-18T14:20:14.114Z,100740.48
2023-05-18T14:22:43.129Z,100743.23
2023-05-18T14:25:13.150Z,100743.33
2023-05-18T14:27:42.881Z,100744.27
2023-05-18T14:30:31.172Z,100749.31
2023-05-18T14:33:17.672Z,100745.43
2023-05-18T14:36:20.568Z,100746.52
2023-05-18T14:39:10.818Z,100744.13
2023-05-18T14:42:04.796Z,100745.43
2023-05-18T14:45:13.784Z,100747.04
2023-05-18T14:48:03.965Z,100747.72
2023-05-18T14:50:54.033Z,100746.23
2023-05-18T14:53:31.439Z,100746.42
2023-05-18T14:56:38.165Z,100745.29
2023-05-18T14:59:32.019Z,100746.87
2023-05-18T15:02:24.502Z,100745.64
2023-05-18T15:05:18.690Z,100746.15
2023-05-18T15:08:08.076Z,100743.54
2023-05-18T15:10:37.694Z,100746.34
2023-05-18T15:13:30.163Z,100745.81
2023-05-18T15:16:14.914Z,100743.56
2023-05-18T15:18:59.873Z,100742.64
2023-05-18T15:21:55.990Z,100743.64
2023-05-18T15:24:47.060Z,100746.33
2023-05-18T15:27:39.097Z,100743.30
2023-05-18T15:30:11.863Z,100744.16
2023-05-18T15:33:01.855Z,100741.20
2023-05-18T15:35:53.994Z,100743.30
2023-05-18T15:39:02.341Z,100744.17
2023-05-18T15:41:31.964Z,100743.73
2023-05-18T15:44:22.504Z,100740.64
2023-05-18T15:46:59.054Z,100745.02
2023-05-18T15:49:49.725Z,100747.48
2023-05-18T15:52:40.689Z,100751.29
2023-05-18T15:55:26.809Z,100751.34
2023-05-18T15:58:14.314Z,100751.79
2023-05-18T16:01:04.168Z,100755.99
2023-05-18T16:03:42.406Z,100756.23
2023-05-18T16:06:50.433Z,100758.46
2023-05-18T16:09:24.610Z,100759.26
2023-05-18T16:12:14.516Z,100757.61
2023-05-18T16:15:26.285Z,100756.96
2023-05-18T16:17:56.005Z,100759.52
2023-05-18T16:20:47.536Z,100759.80
2023-05-18T16:23:39.160Z,100762.93
2023-05-18T16:26:11.806Z,100770.89
2023-05-18T16:28:42.152Z,100772.89
2023-05-18T16:31:21.791Z,100775.31
2023-05-18T16:34:26.002Z,100778.45
2023-05-18T16:37:49.838Z,100778.30
2023-05-18T16:40:26.214Z,100781.98
2023-05-18T16:43:14.727Z,100781.25
2023-05-18T16:45:43.284Z,100779.52
2023-05-18T16:48:16.201Z,100782.51
2023-05-18T16:51:02.352Z,100787.10
2023-05-18T16:53:51.167Z,100783.86
2023-05-18T16:56:25.420Z,100785.75
2023-05-18T16:58:55.098Z,100785.09
2023-05-18T17:01:47.866Z,100788.71
2023-05-18T17:04:31.499Z,100786.73
2023-05-18T17:07:47.044Z,100794.36
2023-05-18T17:10:17.125Z,100798.38
2023-05-18T17:13:05.242Z,100804.66
2023-05-18T17:16:13.106Z,100807.39
2023-05-18T17:18:45.136Z,100809.30
2023-05-18T17:21:17.302Z,100818.87
2023-05-18T17:24:12.830Z,100820.04
2023-05-18T17:27:00.602Z,100823.85
2023-05-18T17:30:29.092Z,100827.45
2023-05-18T17:32:58.507Z,100828.43
2023-05-18T17:36:06.722Z,100825.13
2023-05-18T17:38:55.878Z,100829.61
2023-05-18T17:41:33.305Z,100830.27
2023-05-18T17:44:07.671Z,100833.10
2023-05-18T17:46:36.938Z,100833.10
2023-05-18T17:49:06.682Z,100833.67
2023-05-18T17:51:47.257Z,100832.66
2023-05-18T17:54:20.599Z,100836.39
2023-05-18T17:57:09.683Z,100836.54
2023-05-18T17:59:47.387Z,100838.77
2023-05-18T18:02:59.236Z,100838.57
2023-05-18T18:05:27.690Z,100840.08
2023-05-18T18:07:57.809Z,100838.05
2023-05-18T18:11:09.107Z,100836.67
2023-05-18T18:13:58.023Z,100836.52
2023-05-18T18:16:46.980Z,100834.61
2023-05-18T18:19:55.519Z,100836.90
2023-05-18T18:23:03.840Z,100843.09
2023-05-18T18:25:40.767Z,100842.29
2023-05-18T18:28:10.672Z,100842.05
2023-05-18T18:30:59.094Z,100842.85
2023-05-18T18:34:27.065Z,100839.88
2023-05-18T18:37:42.351Z,100845.54
2023-05-18T18:40:33.666Z,100847.55
2023-05-18T18:43:31.581Z,100847.31
2023-05-18T18:46:24.086Z,100850.27
2023-05-18T18:49:20.884Z,100851.77
2023-05-18T18:52:25.483Z,100857.55
2023-05-18T18:54:57.960Z,100857.14
2023-05-18T18:57:47.500Z,100861.43
2023-05-18T19:00:18.800Z,100861.71
2023-05-18T19:03:02.562Z,100864.20
2023-05-18T19:06:12.262Z,100868.35
2023-05-18T19:09:20.198Z,100871.70
2023-05-18T19:15:16.201Z,100871.23
2023-05-18T19:18:04.931Z,100870.54
2023-05-18T19:20:34.752Z,100873.48
2023-05-18T19:23:42.380Z,100872.05
2023-05-18T19:26:30.816Z,100874.02
2023-05-18T19:29:19.517Z,100877.63
2023-05-18T19:31:56.099Z,100875.23
2023-05-18T19:34:46.032Z,100877.45
2023-05-18T19:37:56.023Z,100877.59
2023-05-18T19:40:28.598Z,100879.33
2023-05-18T19:43:36.595Z,100880.41
2023-05-18T19:46:40.700Z,100883.70
2023-05-18T19:49:48.914Z,100886.80
2023-05-18T19:52:39.198Z,100888.70
2023-05-18T19:55:07.635Z,100888.23
2023-05-18T19:57:56.563Z,100883.41
2023-05-18T20:01:07.410Z,100882.47
2023-05-18T20:03:40.846Z,100881.73
2023-05-18T20:06:35.076Z,100880.94
2023-05-18T20:09:21.108Z,100884.91
2023-05-18T20:12:15.150Z,100889.07
2023-05-18T20:15:22.883Z,100899.13
2023-05-18T20:18:05.227Z,100899.48
2023-05-18T20:20:52.233Z,100901.16
2023-05-18T20:23:44.744Z,100900.21
2023-05-18T20:26:17.497Z,100898.36
2023-05-18T20:29:29.540Z,100902.73
2023-05-18T20:32:00.576Z,100909.00
2023-05-18T20:34:39.190Z,100908.79
2023-05-18T20:37:34.505Z,100909.39
2023-05-18T20:40:10.271Z,100909.48
2023-05-18T20:42:48.663Z,100915.23
2023-05-18T20:45:37.613Z,100916.14
2023-05-18T20:48:11.255Z,100912.70
2023-05-18T20:50:59.920Z,100907.39
2023-05-18T20:53:44.135Z,100906.08
2023-05-18T20:56:32.934Z,100903.61
2023-05-18T20:59:28.451Z,100908.27
2023-05-18T21:02:14.232Z,100912.45
2023-05-18T21:04:58.520Z,100911.73
2023-05-18T21:08:06.149Z,100913.54
2023-05-18T21:10:56.290Z,100917.39
2023-05-18T21:14:08.062Z,100920.39
2023-05-18T21:16:56.838Z,100923.87
2023-05-18T21:20:04.079Z,100923.67
2023-05-18T21:23:09.237Z,100923.87
2023-05-18T21:26:01.404Z,100920.74
2023-05-18T21:29:04.781Z,100919.71
2023-05-18T21:32:12.982Z,100922.56
2023-05-18T21:34:49.746Z,100923.49
2023-05-18T21:37:56.951Z,100924.71
2023-05-18T21:40:25.079Z,100924.13
2023-05-18T21:42:53.692Z,100924.16
2023-05-18T21:45:42.185Z,100920.66
2023-05-18T21:48:19.149Z,100923.06
2023-05-18T21:51:11.535Z,100918.66
2023-05-18T21:54:17.072Z,100921.20
2023-05-18T21:57:26.924Z,100922.52
2023-05-18T22:00:01.542Z,100922.48
2023-05-18T22:03:11.149Z,100923.67
2023-05-18T22:06:20.690Z,100921.76
2023-05-18T22:09:12.740Z,100920.00
2023-05-18T22:12:00.214Z,100925.90
2023-05-18T22:14:32.410Z,100926.98
2023-05-18T22:17:04.766Z,100929.00
2023-05-18T22:19:51.414Z,100931.27
2023-05-18T22:22:59.878Z,100934.04
2023-05-18T22:26:03.159Z,100933.92
2023-05-18T22:28:53.373Z,100934.43
2023-05-18T22:31:25.995Z,100933.02
2023-05-18T22:34:13.915Z,100935.23
2023-05-18T22:37:37.676Z,100937.23
2023-05-18T22:40:26.643Z,100937.11
2023-05-18T22:43:43.036Z,100941.20
2023-05-18T22:46:51.448Z,100940.88
2023-05-18T22:49:39.534Z,100941.69
2023-05-18T22:52:42.513Z,100947.38
2023-05-18T22:55:46.602Z,100952.21
2023-05-18T22:58:55.376Z,100952.20
2023-05-18T23:02:06.345Z,100946.19
2023-05-18T23:04:40.514Z,100943.29
2023-05-18T23:07:48.368Z,100945.45
2023-05-18T23:10:33.962Z,100943.79
2023-05-18T23:13:12.037Z,100944.35
2023-05-18T23:15:40.935Z,100937.73
2023-05-18T23:18:52.591Z,100929.96
2023-05-18T23:21:41.000Z,100928.02
2023-05-18T23:24:49.103Z,100918.80
2023-05-18T23:27:39.218Z,100918.19
2023-05-18T23:30:27.432Z,100915.52
2023-05-18T23:33:16.459Z,100917.38
2023-05-18T23:36:00.206Z,100915.50
2023-05-18T23:38:33.048Z,100910.95
2023-05-18T23:41:41.471Z,100909.25
2023-05-18T23:44:45.477Z,100912.85
2023-05-18T23:47:22.482Z,100912.63
2023-05-18T23:50:13.451Z,100916.84
2023-05-18T23:53:01.774Z,100912.83
2023-05-18T23:56:05.491Z,100910.95
2023-05-18T23:59:21.234Z,100905.71
